sensor_id;sensor_type;location;lat;lon;timestamp;P1;durP1;ratioP1;P2;durP2;ratioP2
18399;SDS011;9326;49.468;11.008;2023-02-14T00:02:05;46.23;;;28.90;;
18399;SDS011;9326;49.468;11.008;2023-02-14T00:04:34;43.77;;;29.03;;
18399;SDS011;9326;49.468;11.008;2023-02-14T00:07:02;50.53;;;30.63;;
18399;SDS011;9326;49.468;11.008;2023-02-14T00:09:30;46.67;;;29.63;;
18399;SDS011;9326;49.468;11.008;2023-02-14T00:11:57;45.63;;;28.77;;
18399;SDS011;9326;49.468;11.008;2023-02-14T00:14:24;47.33;;;29.10;;
18399;SDS011;9326;49.468;11.008;2023-02-14T00:17:09;47.53;;;28.63;;
18399;SDS011;9326;49.468;11.008;2023-02-14T00:19:37;49.60;;;29.80;;
18399;SDS011;9326;49.468;11.008;2023-02-14T00:22:04;48.37;;;27.90;;
18399;SDS011;9326;49.468;11.008;2023-02-14T00:24:31;45.07;;;28.30;;
18399;SDS011;9326;49.468;11.008;2023-02-14T00:26:58;46.87;;;30.53;;
18399;SDS011;9326;49.468;11.008;2023-02-14T00:29:28;43.53;;;28.57;;
18399;SDS011;9326;49.468;11.008;2023-02-14T00:31:55;46.90;;;30.20;;
18399;SDS011;9326;49.468;11.008;2023-02-14T00:34:22;43.67;;;28.80;;
18399;SDS011;9326;49.468;11.008;2023-02-14T00:36:50;48.83;;;31.30;;
18399;SDS011;9326;49.468;11.008;2023-02-14T00:39:18;44.87;;;29.20;;
18399;SDS011;9326;49.468;11.008;2023-02-14T00:41:45;45.90;;;30.17;;
18399;SDS011;9326;49.468;11.008;2023-02-14T00:44:12;44.13;;;27.83;;
18399;SDS011;9326;49.468;11.008;2023-02-14T00:46:39;42.90;;;27.97;;
18399;SDS011;9326;49.468;11.008;2023-02-14T00:49:06;44.60;;;28.60;;
18399;SDS011;9326;49.468;11.008;2023-02-14T00:51:34;45.03;;;29.57;;
18399;SDS011;9326;49.468;11.008;2023-02-14T00:54:02;44.80;;;28.90;;
18399;SDS011;9326;49.468;11.008;2023-02-14T00:56:29;41.97;;;28.57;;
18399;SDS011;9326;49.468;11.008;2023-02-14T00:58:56;45.00;;;28.50;;
18399;SDS011;9326;49.468;11.008;2023-02-14T06:00:32;51.67;;;28.27;;
18399;SDS011;9326;49.468;11.008;2023-02-14T06:03:01;52.23;;;26.70;;
18399;SDS011;9326;49.468;11.008;2023-02-14T06:05:28;51.53;;;27.73;;
18399;SDS011;9326;49.468;11.008;2023-02-14T06:07:55;51.83;;;24.23;;
18399;SDS011;9326;49.468;11.008;2023-02-14T06:10:23;51.70;;;27.43;;
18399;SDS011;9326;49.468;11.008;2023-02-14T06:12:50;51.03;;;27.53;;
18399;SDS011;9326;49.468;11.008;2023-02-14T06:15:18;51.57;;;27.17;;
18399;SDS011;9326;49.468;11.008;2023-02-14T06:17:50;49.50;;;27.93;;
18399;SDS011;9326;49.468;11.008;2023-02-14T06:20:18;48.70;;;27.13;;
18399;SDS011;9326;49.468;11.008;2023-02-14T06:22:45;50.80;;;28.30;;
18399;SDS011;9326;49.468;11.008;2023-02-14T06:25:12;50.00;;;26.73;;
18399;SDS011;9326;49.468;11.008;2023-02-14T06:27:39;49.17;;;27.17;;
18399;SDS011;9326;49.468;11.008;2023-02-14T06:30:06;49.23;;;27.20;;
18399;SDS011;9326;49.468;11.008;2023-02-14T06:32:33;51.70;;;28.40;;
18399;SDS011;9326;49.468;11.008;2023-02-14T06:35:02;47.77;;;26.23;;
18399;SDS011;9326;49.468;11.008;2023-02-14T06:37:29;51.03;;;26.57;;
18399;SDS011;9326;49.468;11.008;2023-02-14T06:39:56;48.60;;;25.70;;
18399;SDS011;9326;49.468;11.008;2023-02-14T06:42:23;50.90;;;26.83;;
18399;SDS011;9326;49.468;11.008;2023-02-14T06:44:50;45.50;;;24.10;;
18399;SDS011;9326;49.468;11.008;2023-02-14T06:47:17;49.33;;;24.67;;
18399;SDS011;9326;49.468;11.008;2023-02-14T06:49:44;48.37;;;26.77;;
18399;SDS011;9326;49.468;11.008;2023-02-14T06:52:12;50.17;;;26.10;;
18399;SDS011;9326;49.468;11.008;2023-02-14T06:54:39;46.90;;;24.43;;
18399;SDS011;9326;49.468;11.008;2023-02-14T06:57:06;46.17;;;24.93;;
18399;SDS011;9326;49.468;11.008;2023-02-14T06:59:33;48.53;;;25.50;;
18399;SDS011;9326;49.468;11.008;2023-02-14T07:02:00;45.40;;;24.03;;
18399;SDS011;9326;49.468;11.008;2023-02-14T07:04:27;43.83;;;23.90;;
18399;SDS011;9326;49.468;11.008;2023-02-14T07:06:54;45.07;;;24.20;;
18399;SDS011;9326;49.468;11.008;2023-02-14T07:09:23;45.73;;;24.67;;
18399;SDS011;9326;49.468;11.008;2023-02-14T07:11:50;50.57;;;24.07;;
18399;SDS011;9326;49.468;11.008;2023-02-14T07:14:17;46.00;;;25.50;;
18399;SDS011;9326;49.468;11.008;2023-02-14T07:16:44;45.67;;;25.10;;
18399;SDS011;9326;49.468;11.008;2023-02-14T07:19:11;46.97;;;25.33;;
18399;SDS011;9326;49.468;11.008;2023-02-14T07:21:38;46.97;;;24.13;;
18399;SDS011;9326;49.468;11.008;2023-02-14T07:24:05;45.53;;;24.90;;
18399;SDS011;9326;49.468;11.008;2023-02-14T07:26:34;43.30;;;22.40;;
18399;SDS011;9326;49.468;11.008;2023-02-14T07:29:01;44.27;;;24.20;;
18399;SDS011;9326;49.468;11.008;2023-02-14T07:31:29;43.50;;;24.03;;
18399;SDS011;9326;49.468;11.008;2023-02-14T07:33:56;45.07;;;24.53;;
18399;SDS011;9326;49.468;11.008;2023-02-14T07:36:24;46.97;;;23.77;;
18399;SDS011;9326;49.468;11.008;2023-02-14T07:38:51;44.40;;;24.57;;
18399;SDS011;9326;49.468;11.008;2023-02-14T07:41:18;40.57;;;21.60;;
18399;SDS011;9326;49.468;11.008;2023-02-14T07:43:47;40.63;;;22.63;;
18399;SDS011;9326;49.468;11.008;2023-02-14T07:46:14;40.20;;;22.93;;
18399;SDS011;9326;49.468;11.008;2023-02-14T07:48:42;44.37;;;24.27;;
18399;SDS011;9326;49.468;11.008;2023-02-14T07:51:09;45.40;;;24.20;;
18399;SDS011;9326;49.468;11.008;2023-02-14T07:53:36;36.53;;;21.80;;
18399;SDS011;9326;49.468;11.008;2023-02-14T07:56:03;43.93;;;22.50;;
18399;SDS011;9326;49.468;11.008;2023-02-14T07:58:30;44.43;;;23.23;;
18399;SDS011;9326;49.468;11.008;2023-02-14T08:00:59;42.77;;;24.20;;
18399;SDS011;9326;49.468;11.008;2023-02-14T08:03:26;40.93;;;23.03;;
18399;SDS011;9326;49.468;11.008;2023-02-14T08:05:53;45.87;;;23.13;;
18399;SDS011;9326;49.468;11.008;2023-02-14T08:08:22;41.93;;;22.90;;
18399;SDS011;9326;49.468;11.008;2023-02-14T08:10:50;41.50;;;22.67;;
18399;SDS011;9326;49.468;11.008;2023-02-14T08:13:17;46.73;;;23.83;;
18399;SDS011;9326;49.468;11.008;2023-02-14T08:15:43;43.93;;;23.97;;
18399;SDS011;9326;49.468;11.008;2023-02-14T08:18:29;41.17;;;22.33;;
18399;SDS011;9326;49.468;11.008;2023-02-14T08:20:56;40.47;;;21.80;;
18399;SDS011;9326;49.468;11.008;2023-02-14T08:23:23;42.47;;;23.23;;
18399;SDS011;9326;49.468;11.008;2023-02-14T08:25:51;41.47;;;22.13;;
18399;SDS011;9326;49.468;11.008;2023-02-14T08:28:18;39.40;;;21.63;;
18399;SDS011;9326;49.468;11.008;2023-02-14T08:30:46;39.17;;;21.73;;
18399;SDS011;9326;49.468;11.008;2023-02-14T08:33:13;43.07;;;22.33;;
18399;SDS011;9326;49.468;11.008;2023-02-14T08:35:41;38.37;;;22.00;;
18399;SDS011;9326;49.468;11.008;2023-02-14T08:38:08;38.03;;;21.27;;
18399;SDS011;9326;49.468;11.008;2023-02-14T08:40:35;35.60;;;20.50;;
18399;SDS011;9326;49.468;11.008;2023-02-14T08:43:02;38.57;;;21.60;;
18399;SDS011;9326;49.468;11.008;2023-02-14T08:45:29;38.33;;;20.27;;
18399;SDS011;9326;49.468;11.008;2023-02-14T08:47:59;36.07;;;20.73;;
18399;SDS011;9326;49.468;11.008;2023-02-14T08:50:26;38.10;;;21.90;;
18399;SDS011;9326;49.468;11.008;2023-02-14T08:52:54;38.93;;;21.70;;
18399;SDS011;9326;49.468;11.008;2023-02-14T08:55:21;43.27;;;22.53;;
18399;SDS011;9326;49.468;11.008;2023-02-14T08:57:48;44.90;;;22.60;;
18399;SDS011;9326;49.468;11.008;2023-02-14T09:00:16;47.07;;;25.37;;
18399;SDS011;9326;49.468;11.008;2023-02-14T09:02:43;45.50;;;24.37;;
18399;SDS011;9326;49.468;11.008;2023-02-14T09:05:10;51.13;;;26.60;;
18399;SDS011;9326;49.468;11.008;2023-02-14T09:07:37;47.43;;;26.80;;
18399;SDS011;9326;49.468;11.008;2023-02-14T09:10:06;49.70;;;27.33;;
18399;SDS011;9326;49.468;11.008;2023-02-14T09:12:33;43.87;;;24.73;;
18399;SDS011;9326;49.468;11.008;2023-02-14T09:15:00;61.03;;;33.90;;
18399;SDS011;9326;49.468;11.008;2023-02-14T09:17:27;45.57;;;24.23;;
18399;SDS011;9326;49.468;11.008;2023-02-14T09:19:54;48.77;;;24.50;;
18399;SDS011;9326;49.468;11.008;2023-02-14T09:22:21;45.57;;;23.97;;
18399;SDS011;9326;49.468;11.008;2023-02-14T09:24:48;43.93;;;24.87;;
18399;SDS011;9326;49.468;11.008;2023-02-14T09:27:17;44.13;;;22.93;;
18399;SDS011;9326;49.468;11.008;2023-02-14T09:29:44;45.13;;;23.87;;
18399;SDS011;9326;49.468;11.008;2023-02-14T09:32:11;41.90;;;24.70;;
18399;SDS011;9326;49.468;11.008;2023-02-14T09:34:38;39.40;;;22.57;;
18399;SDS011;9326;49.468;11.008;2023-02-14T09:37:05;39.93;;;22.60;;
18399;SDS011;9326;49.468;11.008;2023-02-14T09:39:31;38.17;;;21.43;;
18399;SDS011;9326;49.468;11.008;2023-02-14T09:42:11;36.23;;;21.30;;
18399;SDS011;9326;49.468;11.008;2023-02-14T09:44:43;38.90;;;20.53;;
18399;SDS011;9326;49.468;11.008;2023-02-14T09:47:15;38.73;;;21.90;;
18399;SDS011;9326;49.468;11.008;2023-02-14T09:49:44;39.37;;;23.57;;
18399;SDS011;9326;49.468;11.008;2023-02-14T09:52:13;37.40;;;21.97;;
18399;SDS011;9326;49.468;11.008;2023-02-14T09:54:42;38.00;;;20.47;;
18399;SDS011;9326;49.468;11.008;2023-02-14T09:57:10;43.70;;;23.57;;
18399;SDS011;9326;49.468;11.008;2023-02-14T09:59:41;44.47;;;24.60;;
18399;SDS011;9326;49.468;11.008;2023-02-14T10:02:16;48.23;;;26.60;;
18399;SDS011;9326;49.468;11.008;2023-02-14T10:04:46;44.13;;;26.53;;
18399;SDS011;9326;49.468;11.008;2023-02-14T10:07:19;36.50;;;21.57;;
18399;SDS011;9326;49.468;11.008;2023-02-14T10:09:51;47.80;;;26.33;;
18399;SDS011;9326;49.468;11.008;2023-02-14T10:12:21;46.63;;;25.87;;
18399;SDS011;9326;49.468;11.008;2023-02-14T10:14:48;36.87;;;22.37;;
18399;SDS011;9326;49.468;11.008;2023-02-14T10:17:18;39.47;;;22.33;;
18399;SDS011;9326;49.468;11.008;2023-02-14T10:19:48;38.07;;;22.60;;
18399;SDS011;9326;49.468;11.008;2023-02-14T10:22:18;38.33;;;22.53;;
18399;SDS011;9326;49.468;11.008;2023-02-14T10:24:47;37.70;;;22.27;;
18399;SDS011;9326;49.468;11.008;2023-02-14T10:27:20;50.47;;;33.30;;
18399;SDS011;9326;49.468;11.008;2023-02-14T10:29:48;42.07;;;26.43;;
18399;SDS011;9326;49.468;11.008;2023-02-14T10:32:17;37.63;;;21.73;;
18399;SDS011;9326;49.468;11.008;2023-02-14T10:34:48;34.77;;;20.63;;
18399;SDS011;9326;49.468;11.008;2023-02-14T10:37:22;35.90;;;20.90;;
18399;SDS011;9326;49.468;11.008;2023-02-14T10:39:56;34.33;;;20.23;;
18399;SDS011;9326;49.468;11.008;2023-02-14T10:42:28;34.30;;;21.23;;
18399;SDS011;9326;49.468;11.008;2023-02-14T10:45:01;35.97;;;20.83;;
18399;SDS011;9326;49.468;11.008;2023-02-14T10:47:34;34.27;;;20.67;;
18399;SDS011;9326;49.468;11.008;2023-02-14T10:50:10;31.47;;;19.00;;
18399;SDS011;9326;49.468;11.008;2023-02-14T10:52:41;33.60;;;20.17;;
18399;SDS011;9326;49.468;11.008;2023-02-14T10:55:11;29.73;;;19.00;;
18399;SDS011;9326;49.468;11.008;2023-02-14T10:57:39;34.90;;;20.40;;
18399;SDS011;9326;49.468;11.008;2023-02-14T11:00:10;53.83;;;32.80;;
18399;SDS011;9326;49.468;11.008;2023-02-14T11:02:43;31.00;;;20.27;;
18399;SDS011;9326;49.468;11.008;2023-02-14T11:05:18;42.20;;;29.43;;
18399;SDS011;9326;49.468;11.008;2023-02-14T11:07:48;35.03;;;24.07;;
18399;SDS011;9326;49.468;11.008;2023-02-14T11:10:15;43.80;;;27.70;;
18399;SDS011;9326;49.468;11.008;2023-02-14T11:12:43;44.43;;;27.90;;
18399;SDS011;9326;49.468;11.008;2023-02-14T11:15:21;34.63;;;22.10;;
18399;SDS011;9326;49.468;11.008;2023-02-14T11:17:49;37.07;;;23.83;;
18399;SDS011;9326;49.468;11.008;2023-02-14T11:20:34;44.80;;;27.63;;
18399;SDS011;9326;49.468;11.008;2023-02-14T11:23:01;28.83;;;19.37;;
18399;SDS011;9326;49.468;11.008;2023-02-14T11:25:28;28.20;;;19.13;;
18399;SDS011;9326;49.468;11.008;2023-02-14T11:27:56;26.17;;;18.13;;
18399;SDS011;9326;49.468;11.008;2023-02-14T11:30:25;31.83;;;22.80;;
18399;SDS011;9326;49.468;11.008;2023-02-14T11:32:52;25.47;;;18.60;;
18399;SDS011;9326;49.468;11.008;2023-02-14T11:35:20;23.63;;;16.80;;
18399;SDS011;9326;49.468;11.008;2023-02-14T11:37:52;21.80;;;15.67;;
18399;SDS011;9326;49.468;11.008;2023-02-14T11:40:24;24.57;;;15.87;;
18399;SDS011;9326;49.468;11.008;2023-02-14T11:42:52;21.97;;;14.77;;
18399;SDS011;9326;49.468;11.008;2023-02-14T11:45:30;22.60;;;15.27;;
18399;SDS011;9326;49.468;11.008;2023-02-14T11:48:15;25.63;;;18.17;;
18399;SDS011;9326;49.468;11.008;2023-02-14T11:50:42;24.93;;;16.03;;
18399;SDS011;9326;49.468;11.008;2023-02-14T11:53:11;24.97;;;17.73;;
18399;SDS011;9326;49.468;11.008;2023-02-14T11:55:38;22.37;;;16.00;;
18399;SDS011;9326;49.468;11.008;2023-02-14T11:58:06;23.90;;;16.17;;
18399;SDS011;9326;49.468;11.008;2023-02-14T12:00:34;25.67;;;16.87;;
18399;SDS011;9326;49.468;11.008;2023-02-14T12:03:02;25.17;;;16.97;;
18399;SDS011;9326;49.468;11.008;2023-02-14T12:05:31;24.67;;;16.93;;
18399;SDS011;9326;49.468;11.008;2023-02-14T12:07:59;24.97;;;16.67;;
18399;SDS011;9326;49.468;11.008;2023-02-14T12:10:28;30.03;;;16.93;;
18399;SDS011;9326;49.468;11.008;2023-02-14T12:12:59;22.90;;;15.87;;
18399;SDS011;9326;49.468;11.008;2023-02-14T12:15:28;26.07;;;16.33;;
18399;SDS011;9326;49.468;11.008;2023-02-14T12:18:01;27.87;;;17.07;;
18399;SDS011;9326;49.468;11.008;2023-02-14T12:20:34;26.07;;;16.63;;
18399;SDS011;9326;49.468;11.008;2023-02-14T12:23:03;24.17;;;16.33;;
18399;SDS011;9326;49.468;11.008;2023-02-14T12:25:35;26.43;;;16.80;;
18399;SDS011;9326;49.468;11.008;2023-02-14T12:28:08;23.90;;;15.83;;
18399;SDS011;9326;49.468;11.008;2023-02-14T12:30:35;22.80;;;16.10;;
18399;SDS011;9326;49.468;11.008;2023-02-14T12:33:09;23.93;;;16.27;;
18399;SDS011;9326;49.468;11.008;2023-02-14T12:35:39;24.53;;;17.00;;
18399;SDS011;9326;49.468;11.008;2023-02-14T12:38:10;22.77;;;15.47;;
18399;SDS011;9326;49.468;11.008;2023-02-14T12:40:42;22.90;;;14.90;;
18399;SDS011;9326;49.468;11.008;2023-02-14T12:43:20;30.07;;;17.87;;
18399;SDS011;9326;49.468;11.008;2023-02-14T12:45:55;28.47;;;20.67;;
18399;SDS011;9326;49.468;11.008;2023-02-14T12:48:28;27.67;;;19.60;;
18399;SDS011;9326;49.468;11.008;2023-02-14T12:51:00;25.50;;;16.60;;
18399;SDS011;9326;49.468;11.008;2023-02-14T12:53:37;24.47;;;16.60;;
18399;SDS011;9326;49.468;11.008;2023-02-14T12:56:10;22.33;;;15.73;;
18399;SDS011;9326;49.468;11.008;2023-02-14T12:58:48;28.20;;;19.10;;
18399;SDS011;9326;49.468;11.008;2023-02-14T13:01:26;26.13;;;17.20;;
18399;SDS011;9326;49.468;11.008;2023-02-14T13:04:00;24.53;;;15.67;;
18399;SDS011;9326;49.468;11.008;2023-02-14T13:06:30;21.63;;;15.30;;
18399;SDS011;9326;49.468;11.008;2023-02-14T13:09:08;22.03;;;16.33;;
18399;SDS011;9326;49.468;11.008;2023-02-14T13:11:42;23.33;;;15.23;;
18399;SDS011;9326;49.468;11.008;2023-02-14T13:14:15;22.17;;;16.23;;
18399;SDS011;9326;49.468;11.008;2023-02-14T13:16:48;23.23;;;15.63;;
18399;SDS011;9326;49.468;11.008;2023-02-14T13:19:20;22.10;;;15.03;;
18399;SDS011;9326;49.468;11.008;2023-02-14T13:21:52;20.83;;;15.20;;
18399;SDS011;9326;49.468;11.008;2023-02-14T13:24:20;27.47;;;16.63;;
18399;SDS011;9326;49.468;11.008;2023-02-14T13:26:50;21.83;;;15.50;;
18399;SDS011;9326;49.468;11.008;2023-02-14T13:29:20;24.00;;;15.20;;
18399;SDS011;9326;49.468;11.008;2023-02-14T13:31:48;22.50;;;15.50;;
18399;SDS011;9326;49.468;11.008;2023-02-14T13:34:18;21.53;;;14.87;;
18399;SDS011;9326;49.468;11.008;2023-02-14T13:36:48;26.17;;;15.90;;
18399;SDS011;9326;49.468;11.008;2023-02-14T13:39:17;23.03;;;14.63;;
18399;SDS011;9326;49.468;11.008;2023-02-14T13:41:47;21.20;;;14.23;;
18399;SDS011;9326;49.468;11.008;2023-02-14T13:44:24;20.93;;;13.20;;
18399;SDS011;9326;49.468;11.008;2023-02-14T13:47:07;18.97;;;13.43;;
18399;SDS011;9326;49.468;11.008;2023-02-14T13:49:44;22.13;;;14.60;;
18399;SDS011;9326;49.468;11.008;2023-02-14T13:52:12;19.57;;;13.70;;
18399;SDS011;9326;49.468;11.008;2023-02-14T13:54:41;23.93;;;13.90;;
18399;SDS011;9326;49.468;11.008;2023-02-14T13:57:23;21.27;;;13.40;;
18399;SDS011;9326;49.468;11.008;2023-02-14T14:02:41;21.00;;;13.93;;
18399;SDS011;9326;49.468;11.008;2023-02-14T14:10:42;18.53;;;13.40;;
18399;SDS011;9326;49.468;11.008;2023-02-14T14:13:11;18.03;;;13.47;;
18399;SDS011;9326;49.468;11.008;2023-02-14T14:18:41;18.83;;;13.87;;
18399;SDS011;9326;49.468;11.008;2023-02-14T14:21:13;20.60;;;13.57;;
18399;SDS011;9326;49.468;11.008;2023-02-14T14:23:40;22.70;;;14.57;;
18399;SDS011;9326;49.468;11.008;2023-02-14T14:28:53;22.73;;;14.83;;
18399;SDS011;9326;49.468;11.008;2023-02-14T14:31:20;19.70;;;13.43;;
18399;SDS011;9326;49.468;11.008;2023-02-14T14:33:57;20.20;;;14.10;;
18399;SDS011;9326;49.468;11.008;2023-02-14T14:36:24;18.63;;;13.43;;
18399;SDS011;9326;49.468;11.008;2023-02-14T14:38:51;19.13;;;14.20;;
18399;SDS011;9326;49.468;11.008;2023-02-14T14:41:19;22.93;;;14.57;;
18399;SDS011;9326;49.468;11.008;2023-02-14T14:43:46;24.40;;;14.87;;
18399;SDS011;9326;49.468;11.008;2023-02-14T14:46:14;23.67;;;14.27;;
18399;SDS011;9326;49.468;11.008;2023-02-14T14:48:43;22.03;;;14.27;;
18399;SDS011;9326;49.468;11.008;2023-02-14T14:51:16;20.73;;;14.37;;
18399;SDS011;9326;49.468;11.008;2023-02-14T14:53:45;22.40;;;14.53;;
18399;SDS011;9326;49.468;11.008;2023-02-14T14:56:16;22.93;;;14.80;;
18399;SDS011;9326;49.468;11.008;2023-02-14T14:58:45;22.60;;;15.13;;
18399;SDS011;9326;49.468;11.008;2023-02-14T15:01:13;24.67;;;15.67;;
18399;SDS011;9326;49.468;11.008;2023-02-14T15:03:53;21.73;;;14.53;;
18399;SDS011;9326;49.468;11.008;2023-02-14T15:06:21;23.20;;;14.87;;
18399;SDS011;9326;49.468;11.008;2023-02-14T15:08:48;23.07;;;15.23;;
18399;SDS011;9326;49.468;11.008;2023-02-14T15:11:17;24.83;;;15.10;;
18399;SDS011;9326;49.468;11.008;2023-02-14T15:14:00;25.63;;;15.83;;
18399;SDS011;9326;49.468;11.008;2023-02-14T15:16:31;24.83;;;15.93;;
18399;SDS011;9326;49.468;11.008;2023-02-14T15:19:05;22.80;;;15.70;;
18399;SDS011;9326;49.468;11.008;2023-02-14T15:21:33;23.53;;;16.50;;
18399;SDS011;9326;49.468;11.008;2023-02-14T15:24:01;23.43;;;15.77;;
18399;SDS011;9326;49.468;11.008;2023-02-14T15:26:29;21.33;;;15.57;;
18399;SDS011;9326;49.468;11.008;2023-02-14T15:28:57;25.13;;;15.60;;
18399;SDS011;9326;49.468;11.008;2023-02-14T15:31:28;24.43;;;15.23;;
18399;SDS011;9326;49.468;11.008;2023-02-14T15:33:56;23.90;;;15.90;;
18399;SDS011;9326;49.468;11.008;2023-02-14T15:36:24;27.47;;;16.63;;
18399;SDS011;9326;49.468;11.008;2023-02-14T15:38:53;26.87;;;17.00;;
18399;SDS011;9326;49.468;11.008;2023-02-14T15:41:20;24.93;;;16.50;;
18399;SDS011;9326;49.468;11.008;2023-02-14T15:43:49;34.13;;;17.30;;
18399;SDS011;9326;49.468;11.008;2023-02-14T15:46:17;25.80;;;17.53;;
18399;SDS011;9326;49.468;11.008;2023-02-14T15:48:44;28.53;;;17.93;;
18399;SDS011;9326;49.468;11.008;2023-02-14T15:51:16;25.77;;;16.87;;
18399;SDS011;9326;49.468;11.008;2023-02-14T15:53:47;27.43;;;17.93;;
18399;SDS011;9326;49.468;11.008;2023-02-14T15:56:18;24.40;;;16.87;;
18399;SDS011;9326;49.468;11.008;2023-02-14T15:58:48;25.63;;;17.17;;
18399;SDS011;9326;49.468;11.008;2023-02-14T16:01:18;26.13;;;16.93;;
18399;SDS011;9326;49.468;11.008;2023-02-14T16:03:47;26.70;;;17.30;;
18399;SDS011;9326;49.468;11.008;2023-02-14T16:06:28;30.00;;;19.97;;
18399;SDS011;9326;49.468;11.008;2023-02-14T16:08:55;35.27;;;23.00;;
18399;SDS011;9326;49.468;11.008;2023-02-14T16:11:27;36.60;;;21.70;;
18399;SDS011;9326;49.468;11.008;2023-02-14T16:13:54;30.03;;;18.73;;
18399;SDS011;9326;49.468;11.008;2023-02-14T16:16:21;29.10;;;18.63;;
18399;SDS011;9326;49.468;11.008;2023-02-14T16:18:49;30.47;;;19.10;;
18399;SDS011;9326;49.468;11.008;2023-02-14T16:21:18;32.43;;;21.07;;
18399;SDS011;9326;49.468;11.008;2023-02-14T16:23:45;30.27;;;20.03;;
18399;SDS011;9326;49.468;11.008;2023-02-14T16:26:13;29.97;;;19.93;;
18399;SDS011;9326;49.468;11.008;2023-02-14T16:28:41;28.50;;;18.77;;
18399;SDS011;9326;49.468;11.008;2023-02-14T16:31:11;29.20;;;17.53;;
18399;SDS011;9326;49.468;11.008;2023-02-14T16:33:40;27.83;;;17.63;;
18399;SDS011;9326;49.468;11.008;2023-02-14T16:36:10;25.67;;;16.87;;
18399;SDS011;9326;49.468;11.008;2023-02-14T16:38:41;25.37;;;16.73;;
18399;SDS011;9326;49.468;11.008;2023-02-14T16:41:14;25.20;;;16.77;;
18399;SDS011;9326;49.468;11.008;2023-02-14T16:43:43;29.63;;;18.10;;
18399;SDS011;9326;49.468;11.008;2023-02-14T16:46:10;27.47;;;17.30;;
18399;SDS011;9326;49.468;11.008;2023-02-14T16:48:38;28.10;;;17.70;;
18399;SDS011;9326;49.468;11.008;2023-02-14T16:51:05;31.30;;;18.27;;
18399;SDS011;9326;49.468;11.008;2023-02-14T16:53:32;31.50;;;18.50;;
18399;SDS011;9326;49.468;11.008;2023-02-14T16:56:00;32.10;;;20.83;;
18399;SDS011;9326;49.468;11.008;2023-02-14T16:58:28;51.70;;;28.73;;
18399;SDS011;9326;49.468;11.008;2023-02-14T17:00:58;68.07;;;34.33;;
18399;SDS011;9326;49.468;11.008;2023-02-14T17:03:25;56.97;;;31.60;;
18399;SDS011;9326;49.468;11.008;2023-02-14T17:05:53;51.83;;;29.17;;
18399;SDS011;9326;49.468;11.008;2023-02-14T17:08:20;55.23;;;31.60;;
18399;SDS011;9326;49.468;11.008;2023-02-14T17:10:47;98.90;;;56.93;;
18399;SDS011;9326;49.468;11.008;2023-02-14T17:13:15;93.03;;;55.40;;
18399;SDS011;9326;49.468;11.008;2023-02-14T17:15:43;159.23;;;93.57;;
18399;SDS011;9326;49.468;11.008;2023-02-14T17:18:12;108.50;;;62.90;;
18399;SDS011;9326;49.468;11.008;2023-02-14T17:20:41;75.53;;;42.90;;
18399;SDS011;9326;49.468;11.008;2023-02-14T17:23:08;49.50;;;31.23;;
18399;SDS011;9326;49.468;11.008;2023-02-14T17:25:35;60.07;;;37.80;;
18399;SDS011;9326;49.468;11.008;2023-02-14T17:28:02;119.77;;;70.77;;
18399;SDS011;9326;49.468;11.008;2023-02-14T17:30:29;73.40;;;43.60;;
18399;SDS011;9326;49.468;11.008;2023-02-14T17:32:56;83.83;;;54.50;;
18399;SDS011;9326;49.468;11.008;2023-02-14T17:35:25;58.63;;;36.50;;
18399;SDS011;9326;49.468;11.008;2023-02-14T17:37:52;33.80;;;20.67;;
18399;SDS011;9326;49.468;11.008;2023-02-14T17:40:19;27.60;;;18.23;;
18399;SDS011;9326;49.468;11.008;2023-02-14T17:42:46;35.30;;;21.67;;
18399;SDS011;9326;49.468;11.008;2023-02-14T17:45:14;27.70;;;17.77;;
18399;SDS011;9326;49.468;11.008;2023-02-14T17:47:41;26.97;;;18.00;;
18399;SDS011;9326;49.468;11.008;2023-02-14T17:50:09;31.67;;;19.07;;
18399;SDS011;9326;49.468;11.008;2023-02-14T17:52:38;27.57;;;18.53;;
18399;SDS011;9326;49.468;11.008;2023-02-14T17:55:05;26.73;;;18.27;;
18399;SDS011;9326;49.468;11.008;2023-02-14T17:57:33;29.80;;;19.83;;
18399;SDS011;9326;49.468;11.008;2023-02-14T18:00:00;31.83;;;20.53;;
18399;SDS011;9326;49.468;11.008;2023-02-14T18:02:29;33.20;;;21.93;;
18399;SDS011;9326;49.468;11.008;2023-02-14T18:04:56;29.27;;;18.00;;
18399;SDS011;9326;49.468;11.008;2023-02-14T18:07:24;30.77;;;18.20;;
18399;SDS011;9326;49.468;11.008;2023-02-14T18:09:52;29.17;;;19.60;;
18399;SDS011;9326;49.468;11.008;2023-02-14T18:12:19;32.23;;;20.83;;
18399;SDS011;9326;49.468;11.008;2023-02-14T18:14:46;29.50;;;19.83;;
18399;SDS011;9326;49.468;11.008;2023-02-14T18:17:14;31.57;;;19.20;;
18399;SDS011;9326;49.468;11.008;2023-02-14T18:19:41;29.63;;;20.47;;
18399;SDS011;9326;49.468;11.008;2023-02-14T18:22:10;27.37;;;18.93;;
18399;SDS011;9326;49.468;11.008;2023-02-14T18:24:37;29.97;;;20.30;;
18399;SDS011;9326;49.468;11.008;2023-02-14T18:27:06;28.57;;;19.27;;
18399;SDS011;9326;49.468;11.008;2023-02-14T18:29:33;27.00;;;17.20;;
18399;SDS011;9326;49.468;11.008;2023-02-14T18:32:03;26.17;;;17.67;;
18399;SDS011;9326;49.468;11.008;2023-02-14T18:34:30;27.60;;;18.17;;
18399;SDS011;9326;49.468;11.008;2023-02-14T18:36:57;24.90;;;18.63;;
18399;SDS011;9326;49.468;11.008;2023-02-14T18:39:26;27.33;;;19.37;;
18399;SDS011;9326;49.468;11.008;2023-02-14T18:41:53;26.57;;;18.30;;
18399;SDS011;9326;49.468;11.008;2023-02-14T18:44:25;26.97;;;18.47;;
18399;SDS011;9326;49.468;11.008;2023-02-14T18:46:52;27.53;;;19.63;;
18399;SDS011;9326;49.468;11.008;2023-02-14T18:49:19;30.23;;;21.17;;
18399;SDS011;9326;49.468;11.008;2023-02-14T18:51:46;31.63;;;20.97;;
18399;SDS011;9326;49.468;11.008;2023-02-14T18:54:13;33.20;;;19.97;;
18399;SDS011;9326;49.468;11.008;2023-02-14T18:56:40;31.67;;;21.53;;
18399;SDS011;9326;49.468;11.008;2023-02-14T18:59:08;33.60;;;22.47;;
18399;SDS011;9326;49.468;11.008;2023-02-14T19:01:37;37.83;;;23.03;;
18399;SDS011;9326;49.468;11.008;2023-02-14T19:04:05;37.73;;;23.17;;
18399;SDS011;9326;49.468;11.008;2023-02-14T19:06:33;53.77;;;29.37;;
18399;SDS011;9326;49.468;11.008;2023-02-14T19:09:00;51.67;;;29.63;;
18399;SDS011;9326;49.468;11.008;2023-02-14T19:11:29;52.50;;;28.83;;
18399;SDS011;9326;49.468;11.008;2023-02-14T19:13:57;52.27;;;28.53;;
18399;SDS011;9326;49.468;11.008;2023-02-14T19:16:25;50.13;;;26.47;;
18399;SDS011;9326;49.468;11.008;2023-02-14T19:18:54;56.70;;;30.23;;
18399;SDS011;9326;49.468;11.008;2023-02-14T19:21:22;53.97;;;28.27;;
18399;SDS011;9326;49.468;11.008;2023-02-14T19:23:50;52.80;;;27.33;;
18399;SDS011;9326;49.468;11.008;2023-02-14T19:26:18;54.80;;;30.27;;
18399;SDS011;9326;49.468;11.008;2023-02-14T19:28:45;48.90;;;27.30;;
18399;SDS011;9326;49.468;11.008;2023-02-14T19:31:13;49.17;;;26.33;;
18399;SDS011;9326;49.468;11.008;2023-02-14T19:33:41;50.57;;;28.50;;
18399;SDS011;9326;49.468;11.008;2023-02-14T19:36:10;51.80;;;28.70;;
18399;SDS011;9326;49.468;11.008;2023-02-14T19:38:37;49.50;;;26.93;;
18399;SDS011;9326;49.468;11.008;2023-02-14T19:41:04;53.40;;;30.00;;
18399;SDS011;9326;49.468;11.008;2023-02-14T19:43:32;46.23;;;25.50;;
18399;SDS011;9326;49.468;11.008;2023-02-14T19:45:59;47.57;;;26.27;;